Airfield :
LOGIN :

Register | Disclaimer

   EN    FR    IT 

 










Legend :    VFR   Marginal VFR   IFR   Intensive IFR   Very Intensive IFR
Visi :
Ceiling :
>= 8 km
>= 3000ft
5 to 8 km
1000 to 3000 ft
1500m to 5 km
500 to 1000 ft
800 to 1500m
200 to 500 ft
< 800m
< 200 ft
Symbols :   Thunderstorms  Fog  Heavy snow  Heavy precipitations  Wind > 20 kt
SIGMETs :     Misc.  Thunderstorms  Icing  Turbulence  Mountain Waves  Volcanic Ashes






- Airport Elevation : 1504 ft
- IATA code : PNA


LEPP - Noain Pamplona

CURRENT METAR :
  • 130430Z VRB02KT 4500 RA BR BKN018 BKN025 09/09 Q1004

EXPIRED METARs :
  • 130400Z AUTO 00000KT 3500 RA BR BKN018 BKN024 08/08 Q1004
  • 130330Z AUTO VRB02G20KT 9000 3700NW -RA SCT018 BKN025 BKN035 07/07 Q1004
  • 130300Z AUTO 19003KT 150V260 3900 -RA BR SCT019 BKN025 BKN032 07/07 Q1004
  • 130230Z AUTO VRB01KT 8000 -RA BKN028 BKN034 OVC041 07/07 Q1004 RERA
  • 130200Z AUTO 35003KT 2700 RA BR SCT022 BKN030 OVC040 07/07 Q1005

TAF TAF LEPP
Valid from the 13 at 03:00 until the 14 at 03:00 UTC


130200Z 1303/1403 VRB06KT 8000 SCT018 BKN028 TX14/1314Z TN07/1303Z
BECMG 1303/1305 33016KT
PROB40
TEMPO 1303/1313 3000 -RA BR BKN014
PROB30
TEMPO 1303/1309 RA BKN010
TEMPO 1305/1316 30018G30KT
BECMG 1317/1320 26009KT



MET'MAP, your aeronautical weather chart ! - Copyright ORBIFLY December 2007 - Disclaimer

ORBIFLY MET'MAP TEAM :

Programming & Development : Alexandra Zaïnal
Concept & original design : Baudouin d'Aumeries
Assistance for programming : Marc-Olivier Méhu
Technical & hardware support : Manuel Goepfert

Contact : metmap@orbifly.com




SOURCES & CREDITS :

   NOAA